sensor_id;sensor_type;location;lat;lon;timestamp;pressure;altitude;pressure_sealevel;temperature;humidity
40155;BME280;25875;48.202;16.334;2023-11-19T00:01:32;99639.50;;;3.40;60.90
40155;BME280;25875;48.202;16.334;2023-11-19T00:03:58;99638.47;;;3.47;60.70
40155;BME280;25875;48.202;16.334;2023-11-19T00:06:26;99645.84;;;3.30;61.56
40155;BME280;25875;48.202;16.334;2023-11-19T00:08:53;99636.25;;;3.29;61.62
40155;BME280;25875;48.202;16.334;2023-11-19T00:11:19;99632.91;;;3.23;62.12
40155;BME280;25875;48.202;16.334;2023-11-19T00:13:46;99641.38;;;3.35;61.58
40155;BME280;25875;48.202;16.334;2023-11-19T00:16:13;99632.63;;;3.36;61.18
40155;BME280;25875;48.202;16.334;2023-11-19T00:18:40;99635.19;;;3.38;61.40
40155;BME280;25875;48.202;16.334;2023-11-19T00:21:06;99632.50;;;3.41;61.18
40155;BME280;25875;48.202;16.334;2023-11-19T00:23:36;99596.41;;;3.15;61.77
40155;BME280;25875;48.202;16.334;2023-11-19T00:26:04;99629.03;;;3.40;61.64
40155;BME280;25875;48.202;16.334;2023-11-19T00:28:31;99627.25;;;3.42;61.59
40155;BME280;25875;48.202;16.334;2023-11-19T00:30:59;99628.19;;;3.38;62.35
40155;BME280;25875;48.202;16.334;2023-11-19T00:33:25;99633.47;;;3.37;61.23
40155;BME280;25875;48.202;16.334;2023-11-19T00:35:52;99636.78;;;3.45;60.88
40155;BME280;25875;48.202;16.334;2023-11-19T00:38:19;99623.03;;;3.35;61.23
40155;BME280;25875;48.202;16.334;2023-11-19T00:40:47;99625.59;;;3.38;60.85
40155;BME280;25875;48.202;16.334;2023-11-19T00:43:13;99613.25;;;3.43;60.76
40155;BME280;25875;48.202;16.334;2023-11-19T00:45:40;99615.81;;;3.45;60.47
40155;BME280;25875;48.202;16.334;2023-11-19T00:48:07;99612.34;;;3.44;60.68
40155;BME280;25875;48.202;16.334;2023-11-19T00:50:33;99614.41;;;3.30;61.27
40155;BME280;25875;48.202;16.334;2023-11-19T00:53:00;99613.44;;;3.34;61.26
40155;BME280;25875;48.202;16.334;2023-11-19T00:55:28;99613.38;;;3.37;60.75
40155;BME280;25875;48.202;16.334;2023-11-19T00:57:56;99609.88;;;3.38;60.81
40155;BME280;25875;48.202;16.334;2023-11-19T01:00:23;99600.13;;;3.43;60.87
40155;BME280;25875;48.202;16.334;2023-11-19T01:02:52;99592.28;;;3.43;60.87
40155;BME280;25875;48.202;16.334;2023-11-19T01:05:19;99585.41;;;3.38;61.17
40155;BME280;25875;48.202;16.334;2023-11-19T01:07:47;99587.25;;;3.34;61.44
40155;BME280;25875;48.202;16.334;2023-11-19T01:10:14;99594.06;;;3.41;61.16
40155;BME280;25875;48.202;16.334;2023-11-19T01:12:42;99605.50;;;3.37;61.13
40155;BME280;25875;48.202;16.334;2023-11-19T01:15:10;99589.72;;;3.40;61.17
40155;BME280;25875;48.202;16.334;2023-11-19T01:17:37;99589.91;;;3.33;61.52
40155;BME280;25875;48.202;16.334;2023-11-19T01:20:04;99580.19;;;3.38;61.37
40155;BME280;25875;48.202;16.334;2023-11-19T01:22:31;99419.06;;;2.44;61.31
40155;BME280;25875;48.202;16.334;2023-11-19T01:24:58;99562.75;;;3.37;60.93
40155;BME280;25875;48.202;16.334;2023-11-19T01:27:25;99532.50;;;3.22;60.91
40155;BME280;25875;48.202;16.334;2023-11-19T01:29:52;99565.22;;;3.43;61.08
40155;BME280;25875;48.202;16.334;2023-11-19T01:32:19;99560.72;;;3.48;60.95
40155;BME280;25875;48.202;16.334;2023-11-19T01:34:46;99555.59;;;3.43;61.13
40155;BME280;25875;48.202;16.334;2023-11-19T01:37:14;99553.88;;;3.42;61.27
40155;BME280;25875;48.202;16.334;2023-11-19T01:39:43;99556.41;;;3.45;61.28
40155;BME280;25875;48.202;16.334;2023-11-19T01:42:10;99563.53;;;3.40;61.47
40155;BME280;25875;48.202;16.334;2023-11-19T01:44:37;99555.53;;;3.46;60.98
40155;BME280;25875;48.202;16.334;2023-11-19T01:47:04;99573.03;;;3.44;61.40
40155;BME280;25875;48.202;16.334;2023-11-19T01:49:32;99548.63;;;3.42;61.60
40155;BME280;25875;48.202;16.334;2023-11-19T01:51:59;99545.97;;;3.44;61.20
40155;BME280;25875;48.202;16.334;2023-11-19T01:54:27;99536.47;;;3.40;61.65
40155;BME280;25875;48.202;16.334;2023-11-19T01:56:55;99533.75;;;3.44;61.56
40155;BME280;25875;48.202;16.334;2023-11-19T01:59:23;99525.88;;;3.44;61.34
40155;BME280;25875;48.202;16.334;2023-11-19T02:01:53;99528.56;;;3.41;61.42
40155;BME280;25875;48.202;16.334;2023-11-19T02:04:20;99521.47;;;3.46;61.32
40155;BME280;25875;48.202;16.334;2023-11-19T02:06:51;99483.44;;;3.30;61.12
40155;BME280;25875;48.202;16.334;2023-11-19T02:09:19;99485.19;;;3.30;61.33
40155;BME280;25875;48.202;16.334;2023-11-19T02:11:46;99516.22;;;3.46;61.26
40155;BME280;25875;48.202;16.334;2023-11-19T02:14:14;99512.69;;;3.47;61.33
40155;BME280;25875;48.202;16.334;2023-11-19T02:16:41;99500.50;;;3.46;61.19
40155;BME280;25875;48.202;16.334;2023-11-19T02:19:08;99458.06;;;3.32;61.42
40155;BME280;25875;48.202;16.334;2023-11-19T02:21:36;99445.88;;;3.30;61.45
40155;BME280;25875;48.202;16.334;2023-11-19T02:24:06;99467.25;;;3.48;61.43
40155;BME280;25875;48.202;16.334;2023-11-19T02:26:39;99460.34;;;3.46;61.43
40155;BME280;25875;48.202;16.334;2023-11-19T02:29:07;99450.72;;;3.46;61.40
40155;BME280;25875;48.202;16.334;2023-11-19T02:31:34;99448.06;;;3.48;61.67
40155;BME280;25875;48.202;16.334;2023-11-19T02:34:01;99451.56;;;3.47;61.89
40155;BME280;25875;48.202;16.334;2023-11-19T02:36:28;99454.28;;;3.44;62.36
40155;BME280;25875;48.202;16.334;2023-11-19T02:38:55;99451.53;;;3.48;62.26
40155;BME280;25875;48.202;16.334;2023-11-19T02:41:21;99456.91;;;3.44;63.21
40155;BME280;25875;48.202;16.334;2023-11-19T02:43:48;99463.94;;;3.42;63.58
40155;BME280;25875;48.202;16.334;2023-11-19T02:46:16;99455.28;;;3.38;64.33
40155;BME280;25875;48.202;16.334;2023-11-19T02:48:43;99456.19;;;3.37;64.38
40155;BME280;25875;48.202;16.334;2023-11-19T02:51:11;99286.81;;;2.31;65.00
40155;BME280;25875;48.202;16.334;2023-11-19T02:53:38;99453.50;;;3.40;64.85
40155;BME280;25875;48.202;16.334;2023-11-19T02:56:06;99439.56;;;3.38;65.10
40155;BME280;25875;48.202;16.334;2023-11-19T02:58:40;99437.81;;;3.39;64.97
40155;BME280;25875;48.202;16.334;2023-11-19T03:01:07;99435.16;;;3.40;65.70
40155;BME280;25875;48.202;16.334;2023-11-19T03:03:45;99432.50;;;3.42;65.10
40155;BME280;25875;48.202;16.334;2023-11-19T03:06:14;99425.78;;;3.30;66.93
40155;BME280;25875;48.202;16.334;2023-11-19T03:08:41;99431.09;;;3.27;67.01
40155;BME280;25875;48.202;16.334;2023-11-19T03:11:08;99422.31;;;3.30;66.60
40155;BME280;25875;48.202;16.334;2023-11-19T03:13:34;99415.25;;;3.33;66.79
40155;BME280;25875;48.202;16.334;2023-11-19T03:16:01;99410.16;;;3.27;67.59
40155;BME280;25875;48.202;16.334;2023-11-19T03:18:28;99412.63;;;3.33;66.44
40155;BME280;25875;48.202;16.334;2023-11-19T03:20:56;99396.81;;;3.36;66.38
40155;BME280;25875;48.202;16.334;2023-11-19T03:23:23;99383.09;;;3.27;67.93
40155;BME280;25875;48.202;16.334;2023-11-19T03:25:53;99371.72;;;3.28;67.48
40155;BME280;25875;48.202;16.334;2023-11-19T03:28:19;99372.53;;;3.30;67.98
40155;BME280;25875;48.202;16.334;2023-11-19T03:30:46;99368.38;;;3.23;68.78
40155;BME280;25875;48.202;16.334;2023-11-19T03:33:12;99341.75;;;3.05;68.01
40155;BME280;25875;48.202;16.334;2023-11-19T03:35:39;99376.16;;;3.26;67.82
40155;BME280;25875;48.202;16.334;2023-11-19T03:38:07;99364.69;;;3.30;67.96
40155;BME280;25875;48.202;16.334;2023-11-19T03:40:34;99366.69;;;3.20;69.50
40155;BME280;25875;48.202;16.334;2023-11-19T03:43:01;99356.97;;;3.24;68.65
40155;BME280;25875;48.202;16.334;2023-11-19T03:45:29;99359.69;;;3.20;69.37
40155;BME280;25875;48.202;16.334;2023-11-19T03:47:56;99355.22;;;3.24;68.77
40155;BME280;25875;48.202;16.334;2023-11-19T03:50:22;99350.94;;;3.22;69.44
40155;BME280;25875;48.202;16.334;2023-11-19T03:52:49;99347.25;;;3.29;68.56
40155;BME280;25875;48.202;16.334;2023-11-19T03:55:17;99339.66;;;3.18;69.96
40155;BME280;25875;48.202;16.334;2023-11-19T03:57:44;99332.81;;;3.12;70.42
40155;BME280;25875;48.202;16.334;2023-11-19T04:00:12;99332.75;;;3.15;69.51
40155;BME280;25875;48.202;16.334;2023-11-19T04:02:39;99331.66;;;3.24;69.59
40155;BME280;25875;48.202;16.334;2023-11-19T04:05:07;99318.94;;;3.09;72.00
40155;BME280;25875;48.202;16.334;2023-11-19T04:07:35;99332.78;;;3.14;70.76
40155;BME280;25875;48.202;16.334;2023-11-19T04:10:01;99268.66;;;2.96;70.64
40155;BME280;25875;48.202;16.334;2023-11-19T04:12:28;99301.28;;;3.17;70.90
40155;BME280;25875;48.202;16.334;2023-11-19T04:14:55;99297.84;;;3.15;71.05
40155;BME280;25875;48.202;16.334;2023-11-19T04:17:22;99296.13;;;3.14;71.39
40155;BME280;25875;48.202;16.334;2023-11-19T04:19:49;99285.72;;;3.11;71.56
40155;BME280;25875;48.202;16.334;2023-11-19T04:22:16;99287.69;;;3.03;73.13
40155;BME280;25875;48.202;16.334;2023-11-19T04:24:42;99271.19;;;2.99;72.88
40155;BME280;25875;48.202;16.334;2023-11-19T04:27:10;99289.75;;;2.90;73.93
40155;BME280;25875;48.202;16.334;2023-11-19T04:29:38;99291.44;;;2.93;73.74
40155;BME280;25875;48.202;16.334;2023-11-19T04:32:05;99293.09;;;2.97;72.90
40155;BME280;25875;48.202;16.334;2023-11-19T04:34:33;99287.69;;;3.03;72.90
40155;BME280;25875;48.202;16.334;2023-11-19T04:36:59;99291.25;;;3.00;72.81
40155;BME280;25875;48.202;16.334;2023-11-19T04:39:28;99278.13;;;3.02;73.26
40155;BME280;25875;48.202;16.334;2023-11-19T04:41:55;99289.50;;;3.01;73.20
40155;BME280;25875;48.202;16.334;2023-11-19T04:44:22;99255.25;;;2.74;73.81
40155;BME280;25875;48.202;16.334;2023-11-19T04:46:49;99281.75;;;2.96;73.62
40155;BME280;25875;48.202;16.334;2023-11-19T04:49:16;99273.75;;;3.02;73.16
40155;BME280;25875;48.202;16.334;2023-11-19T04:51:44;99275.34;;;3.08;73.02
40155;BME280;25875;48.202;16.334;2023-11-19T04:54:12;99267.53;;;3.06;72.95
40155;BME280;25875;48.202;16.334;2023-11-19T04:56:39;99268.59;;;2.99;73.71
40155;BME280;25875;48.202;16.334;2023-11-19T04:59:06;99258.31;;;2.92;74.66
40155;BME280;25875;48.202;16.334;2023-11-19T05:01:34;99251.91;;;3.03;73.12
40155;BME280;25875;48.202;16.334;2023-11-19T05:04:02;99246.50;;;3.09;72.96
40155;BME280;25875;48.202;16.334;2023-11-19T05:06:29;99237.97;;;3.01;73.52
40155;BME280;25875;48.202;16.334;2023-11-19T05:08:56;99229.34;;;2.98;74.26
40155;BME280;25875;48.202;16.334;2023-11-19T05:11:23;99230.31;;;2.94;74.35
40155;BME280;25875;48.202;16.334;2023-11-19T05:13:49;99235.66;;;2.91;74.28
40155;BME280;25875;48.202;16.334;2023-11-19T05:16:16;99239.31;;;2.83;75.37
40155;BME280;25875;48.202;16.334;2023-11-19T05:18:44;99212.84;;;2.62;75.78
40155;BME280;25875;48.202;16.334;2023-11-19T05:21:12;99235.84;;;2.83;75.63
40155;BME280;25875;48.202;16.334;2023-11-19T05:23:39;99191.63;;;2.72;74.42
40155;BME280;25875;48.202;16.334;2023-11-19T05:26:07;99230.25;;;2.97;74.40
40155;BME280;25875;48.202;16.334;2023-11-19T05:28:34;99225.94;;;2.94;74.47
40155;BME280;25875;48.202;16.334;2023-11-19T05:31:00;99190.41;;;2.85;73.29
40155;BME280;25875;48.202;16.334;2023-11-19T05:33:27;99220.56;;;3.00;73.96
40155;BME280;25875;48.202;16.334;2023-11-19T05:35:54;99225.00;;;2.97;74.57
40155;BME280;25875;48.202;16.334;2023-11-19T05:38:22;99193.31;;;2.75;75.36
40155;BME280;25875;48.202;16.334;2023-11-19T05:40:48;99211.47;;;2.81;76.36
40155;BME280;25875;48.202;16.334;2023-11-19T05:43:15;99203.56;;;2.82;76.23
40155;BME280;25875;48.202;16.334;2023-11-19T05:45:42;99204.50;;;2.80;76.27
40155;BME280;25875;48.202;16.334;2023-11-19T05:48:09;99203.63;;;2.81;76.39
40155;BME280;25875;48.202;16.334;2023-11-19T05:50:36;99204.50;;;2.80;76.72
40155;BME280;25875;48.202;16.334;2023-11-19T05:53:02;99192.38;;;2.77;77.22
40155;BME280;25875;48.202;16.334;2023-11-19T05:55:33;99193.50;;;2.67;78.18
40155;BME280;25875;48.202;16.334;2023-11-19T05:58:00;99186.56;;;2.66;78.43
40155;BME280;25875;48.202;16.334;2023-11-19T06:00:27;99189.09;;;2.69;78.75
40155;BME280;25875;48.202;16.334;2023-11-19T06:02:53;99193.50;;;2.67;78.98
40155;BME280;25875;48.202;16.334;2023-11-19T06:05:20;99187.13;;;2.77;77.72
40155;BME280;25875;48.202;16.334;2023-11-19T06:07:47;99190.09;;;2.98;75.70
40155;BME280;25875;48.202;16.334;2023-11-19T06:10:13;99191.75;;;3.00;75.53
40155;BME280;25875;48.202;16.334;2023-11-19T06:12:44;99195.28;;;2.99;75.61
40155;BME280;25875;48.202;16.334;2023-11-19T06:15:11;99190.94;;;2.98;76.31
40155;BME280;25875;48.202;16.334;2023-11-19T06:17:38;99195.44;;;2.93;77.76
40155;BME280;25875;48.202;16.334;2023-11-19T06:20:06;99188.53;;;2.91;78.10
40155;BME280;25875;48.202;16.334;2023-11-19T06:22:33;99197.53;;;2.80;78.32
40155;BME280;25875;48.202;16.334;2023-11-19T06:25:00;99185.19;;;2.85;77.68
40155;BME280;25875;48.202;16.334;2023-11-19T06:27:32;99193.06;;;2.84;77.94
40155;BME280;25875;48.202;16.334;2023-11-19T06:30:00;99184.44;;;2.80;78.18
40155;BME280;25875;48.202;16.334;2023-11-19T06:32:26;99179.41;;;2.73;78.85
40155;BME280;25875;48.202;16.334;2023-11-19T06:34:53;99180.16;;;2.78;78.13
40155;BME280;25875;48.202;16.334;2023-11-19T06:37:20;99179.56;;;2.67;79.48
40155;BME280;25875;48.202;16.334;2023-11-19T06:39:47;99177.16;;;2.59;80.05
40155;BME280;25875;48.202;16.334;2023-11-19T06:42:14;99187.28;;;2.71;79.07
40155;BME280;25875;48.202;16.334;2023-11-19T06:44:41;99182.63;;;2.82;78.28
40155;BME280;25875;48.202;16.334;2023-11-19T06:47:08;99173.19;;;2.77;78.66
40155;BME280;25875;48.202;16.334;2023-11-19T06:49:35;99176.81;;;2.71;79.57
40155;BME280;25875;48.202;16.334;2023-11-19T06:52:03;99173.44;;;2.68;79.78
40155;BME280;25875;48.202;16.334;2023-11-19T06:54:29;99171.84;;;2.62;80.60
40155;BME280;25875;48.202;16.334;2023-11-19T06:56:56;99168.94;;;2.73;79.53
40155;BME280;25875;48.202;16.334;2023-11-19T06:59:23;99160.16;;;2.75;78.97
40155;BME280;25875;48.202;16.334;2023-11-19T07:01:49;99157.03;;;2.61;80.17
40155;BME280;25875;48.202;16.334;2023-11-19T07:04:17;99156.72;;;2.73;79.48
40155;BME280;25875;48.202;16.334;2023-11-19T07:06:44;99155.66;;;2.80;78.80
40155;BME280;25875;48.202;16.334;2023-11-19T07:09:10;99152.28;;;2.75;79.17
40155;BME280;25875;48.202;16.334;2023-11-19T07:11:38;99140.84;;;2.79;79.58
40155;BME280;25875;48.202;16.334;2023-11-19T07:14:05;99140.88;;;2.78;79.80
40155;BME280;25875;48.202;16.334;2023-11-19T07:16:32;99145.31;;;2.76;80.19
40155;BME280;25875;48.202;16.334;2023-11-19T07:18:59;99129.75;;;2.70;80.65
40155;BME280;25875;48.202;16.334;2023-11-19T07:21:27;99138.41;;;2.73;80.14
40155;BME280;25875;48.202;16.334;2023-11-19T07:23:54;99127.81;;;2.78;79.79
40155;BME280;25875;48.202;16.334;2023-11-19T07:26:21;99122.56;;;2.78;79.51
40155;BME280;25875;48.202;16.334;2023-11-19T07:28:48;99138.09;;;2.84;79.08
40155;BME280;25875;48.202;16.334;2023-11-19T07:31:15;99126.69;;;2.86;78.87
40155;BME280;25875;48.202;16.334;2023-11-19T07:33:43;99113.44;;;2.93;78.49
40155;BME280;25875;48.202;16.334;2023-11-19T07:36:10;99117.84;;;2.91;78.82
40155;BME280;25875;48.202;16.334;2023-11-19T07:38:38;99100.28;;;2.94;77.95
40155;BME280;25875;48.202;16.334;2023-11-19T07:41:05;99096.91;;;2.91;79.07
40155;BME280;25875;48.202;16.334;2023-11-19T07:43:32;99098.75;;;2.87;78.75
40155;BME280;25875;48.202;16.334;2023-11-19T07:45:59;99112.56;;;2.92;77.91
40155;BME280;25875;48.202;16.334;2023-11-19T07:48:25;99117.81;;;2.92;78.38
40155;BME280;25875;48.202;16.334;2023-11-19T07:50:52;99109.06;;;2.93;78.56
40155;BME280;25875;48.202;16.334;2023-11-19T07:53:19;98999.09;;;2.33;78.53
40155;BME280;25875;48.202;16.334;2023-11-19T07:55:47;99096.09;;;2.88;79.40
40155;BME280;25875;48.202;16.334;2023-11-19T07:58:14;99106.03;;;2.76;80.38
40155;BME280;25875;48.202;16.334;2023-11-19T08:00:41;99102.69;;;2.71;80.78
40155;BME280;25875;48.202;16.334;2023-11-19T08:03:07;99094.56;;;2.81;79.94
40155;BME280;25875;48.202;16.334;2023-11-19T08:05:34;99078.47;;;2.64;79.98
40155;BME280;25875;48.202;16.334;2023-11-19T08:08:01;99107.00;;;2.73;80.94
40155;BME280;25875;48.202;16.334;2023-11-19T08:10:28;99105.97;;;2.79;80.33
40155;BME280;25875;48.202;16.334;2023-11-19T08:12:56;99103.94;;;2.88;78.94
40155;BME280;25875;48.202;16.334;2023-11-19T08:15:23;99104.03;;;2.85;80.17
40155;BME280;25875;48.202;16.334;2023-11-19T08:17:49;99109.19;;;2.88;80.82
40155;BME280;25875;48.202;16.334;2023-11-19T08:20:16;99104.00;;;2.87;81.03
40155;BME280;25875;48.202;16.334;2023-11-19T08:22:43;99108.41;;;2.85;81.10
40155;BME280;25875;48.202;16.334;2023-11-19T08:25:09;99107.22;;;2.97;80.10
40155;BME280;25875;48.202;16.334;2023-11-19T08:27:36;99044.44;;;2.64;79.26
40155;BME280;25875;48.202;16.334;2023-11-19T08:30:05;98950.06;;;2.10;79.29
40155;BME280;25875;48.202;16.334;2023-11-19T08:32:32;99088.69;;;3.03;79.46
40155;BME280;25875;48.202;16.334;2023-11-19T08:34:59;99097.25;;;3.09;78.71
40155;BME280;25875;48.202;16.334;2023-11-19T08:37:25;99108.06;;;2.97;80.21
40155;BME280;25875;48.202;16.334;2023-11-19T08:39:52;98849.50;;;1.61;79.23
40155;BME280;25875;48.202;16.334;2023-11-19T08:42:19;99095.91;;;2.95;80.51
40155;BME280;25875;48.202;16.334;2023-11-19T08:44:49;99080.72;;;3.07;79.19
40155;BME280;25875;48.202;16.334;2023-11-19T08:47:17;99081.47;;;3.11;78.99
40155;BME280;25875;48.202;16.334;2023-11-19T08:49:44;99085.81;;;3.12;79.54
40155;BME280;25875;48.202;16.334;2023-11-19T08:52:10;99078.72;;;3.15;79.32
40155;BME280;25875;48.202;16.334;2023-11-19T08:54:37;99081.31;;;3.17;79.16
40155;BME280;25875;48.202;16.334;2023-11-19T08:57:04;99089.88;;;3.22;78.64
40155;BME280;25875;48.202;16.334;2023-11-19T08:59:32;99108.16;;;3.24;78.18
40155;BME280;25875;48.202;16.334;2023-11-19T09:01:59;99111.47;;;3.30;78.42
40155;BME280;25875;48.202;16.334;2023-11-19T09:04:27;99116.16;;;3.19;79.87
40155;BME280;25875;48.202;16.334;2023-11-19T09:06:53;99127.38;;;3.24;79.93
40155;BME280;25875;48.202;16.334;2023-11-19T09:09:21;99113.38;;;3.25;79.45
40155;BME280;25875;48.202;16.334;2023-11-19T09:11:47;99015.22;;;2.79;78.95
40155;BME280;25875;48.202;16.334;2023-11-19T09:14:14;99093.22;;;3.27;79.49
40155;BME280;25875;48.202;16.334;2023-11-19T09:16:40;99078.41;;;3.26;80.36
40155;BME280;25875;48.202;16.334;2023-11-19T09:19:07;99080.50;;;3.15;81.47
40155;BME280;25875;48.202;16.334;2023-11-19T09:21:35;99065.59;;;3.17;81.74
40155;BME280;25875;48.202;16.334;2023-11-19T09:24:04;99056.50;;;3.29;80.67
40155;BME280;25875;48.202;16.334;2023-11-19T09:26:32;99049.56;;;3.28;81.48
40155;BME280;25875;48.202;16.334;2023-11-19T09:28:59;99048.41;;;3.36;79.99
40155;BME280;25875;48.202;16.334;2023-11-19T09:31:26;99016.78;;;3.14;80.18
40155;BME280;25875;48.202;16.334;2023-11-19T09:33:53;99033.56;;;3.37;80.78
40155;BME280;25875;48.202;16.334;2023-11-19T09:36:19;99033.38;;;3.43;79.82
40155;BME280;25875;48.202;16.334;2023-11-19T09:38:47;99011.88;;;3.32;79.95
40155;BME280;25875;48.202;16.334;2023-11-19T09:41:14;98933.13;;;2.82;80.26
40155;BME280;25875;48.202;16.334;2023-11-19T09:43:42;99034.94;;;3.48;80.39
40155;BME280;25875;48.202;16.334;2023-11-19T09:46:10;99023.50;;;3.51;80.28
40155;BME280;25875;48.202;16.334;2023-11-19T09:48:37;98866.91;;;2.52;80.67
40155;BME280;25875;48.202;16.334;2023-11-19T09:51:07;99040.94;;;3.52;79.61
40155;BME280;25875;48.202;16.334;2023-11-19T09:53:33;99030.41;;;3.53;80.04
40155;BME280;25875;48.202;16.334;2023-11-19T09:56:03;99025.22;;;3.52;80.32
40155;BME280;25875;48.202;16.334;2023-11-19T09:58:31;99018.00;;;3.59;80.48
40155;BME280;25875;48.202;16.334;2023-11-19T10:00:59;98837.00;;;2.61;78.73
40155;BME280;25875;48.202;16.334;2023-11-19T10:03:26;99011.56;;;3.69;79.19
40155;BME280;25875;48.202;16.334;2023-11-19T10:05:55;99009.81;;;3.69;79.19
40155;BME280;25875;48.202;16.334;2023-11-19T10:08:22;99006.31;;;3.69;79.46
40155;BME280;25875;48.202;16.334;2023-11-19T10:10:49;99001.94;;;3.69;79.63
40155;BME280;25875;48.202;16.334;2023-11-19T10:13:18;99003.66;;;3.70;79.31
40155;BME280;25875;48.202;16.334;2023-11-19T10:15:45;99008.09;;;3.68;80.54
40155;BME280;25875;48.202;16.334;2023-11-19T10:18:14;99004.59;;;3.68;80.18
40155;BME280;25875;48.202;16.334;2023-11-19T10:20:41;99001.84;;;3.72;79.46
40155;BME280;25875;48.202;16.334;2023-11-19T10:23:08;99004.41;;;3.74;80.35
40155;BME280;25875;48.202;16.334;2023-11-19T10:25:35;99005.22;;;3.76;79.50
40155;BME280;25875;48.202;16.334;2023-11-19T10:28:02;98998.25;;;3.75;80.19
40155;BME280;25875;48.202;16.334;2023-11-19T10:30:31;98992.81;;;3.81;79.42
40155;BME280;25875;48.202;16.334;2023-11-19T10:33:04;98996.19;;;3.84;79.00
40155;BME280;25875;48.202;16.334;2023-11-19T10:35:31;98989.19;;;3.85;79.77
40155;BME280;25875;48.202;16.334;2023-11-19T10:37:59;98985.81;;;3.81;79.81
40155;BME280;25875;48.202;16.334;2023-11-19T10:40:37;98823.69;;;2.95;79.51
40155;BME280;25875;48.202;16.334;2023-11-19T10:43:05;98960.50;;;3.80;80.97
40155;BME280;25875;48.202;16.334;2023-11-19T10:45:34;98965.53;;;3.87;80.68
40155;BME280;25875;48.202;16.334;2023-11-19T10:48:02;98971.56;;;3.89;80.53
40155;BME280;25875;48.202;16.334;2023-11-19T10:50:31;98953.81;;;3.97;80.45
40155;BME280;25875;48.202;16.334;2023-11-19T10:52:58;98950.28;;;3.98;80.55
40155;BME280;25875;48.202;16.334;2023-11-19T10:55:28;98917.53;;;3.84;80.24
40155;BME280;25875;48.202;16.334;2023-11-19T10:57:59;98931.81;;;4.01;79.64
40155;BME280;25875;48.202;16.334;2023-11-19T11:00:26;98942.22;;;4.04;79.93
40155;BME280;25875;48.202;16.334;2023-11-19T11:03:00;98935.19;;;4.04;80.17
40155;BME280;25875;48.202;16.334;2023-11-19T11:05:27;98930.06;;;4.01;81.20
40155;BME280;25875;48.202;16.334;2023-11-19T11:07:55;98928.25;;;4.03;81.13
40155;BME280;25875;48.202;16.334;2023-11-19T11:10:25;98921.06;;;4.08;81.17
40155;BME280;25875;48.202;16.334;2023-11-19T11:12:52;98920.94;;;4.11;81.11
40155;BME280;25875;48.202;16.334;2023-11-19T11:15:24;98911.16;;;4.16;81.41
40155;BME280;25875;48.202;16.334;2023-11-19T11:17:58;98904.25;;;4.14;82.95
40155;BME280;25875;48.202;16.334;2023-11-19T11:20:26;98923.22;;;4.22;82.65
40155;BME280;25875;48.202;16.334;2023-11-19T11:23:04;98911.81;;;4.23;82.16
40155;BME280;25875;48.202;16.334;2023-11-19T11:25:40;98909.13;;;4.25;81.93
40155;BME280;25875;48.202;16.334;2023-11-19T11:28:21;98907.44;;;4.24;81.63
40155;BME280;25875;48.202;16.334;2023-11-19T11:31:10;98909.19;;;4.23;81.75
40155;BME280;25875;48.202;16.334;2023-11-19T11:34:14;98903.88;;;4.25;81.88
40155;BME280;25875;48.202;16.334;2023-11-19T11:36:53;98903.09;;;4.23;82.55
40155;BME280;25875;48.202;16.334;2023-11-19T11:39:24;98927.50;;;4.25;83.02
40155;BME280;25875;48.202;16.334;2023-11-19T11:42:33;98914.28;;;4.28;82.43
40155;BME280;25875;48.202;16.334;2023-11-19T11:45:01;98919.47;;;4.29;82.27
40155;BME280;25875;48.202;16.334;2023-11-19T11:50:57;98907.44;;;4.24;82.30
40155;BME280;25875;48.202;16.334;2023-11-19T11:53:24;98918.50;;;4.32;82.45
40155;BME280;25875;48.202;16.334;2023-11-19T11:55:54;98906.28;;;4.31;82.98
40155;BME280;25875;48.202;16.334;2023-11-19T11:58:25;98912.41;;;4.31;81.57
40155;BME280;25875;48.202;16.334;2023-11-19T12:00:52;98910.50;;;4.35;81.24
40155;BME280;25875;48.202;16.334;2023-11-19T12:03:20;98913.13;;;4.35;82.71
40155;BME280;25875;48.202;16.334;2023-11-19T12:05:48;98840.72;;;3.82;84.06
40155;BME280;25875;48.202;16.334;2023-11-19T12:08:19;98916.72;;;4.32;84.00
40155;BME280;25875;48.202;16.334;2023-11-19T12:10:48;98905.22;;;4.36;83.65
40155;BME280;25875;48.202;16.334;2023-11-19T12:13:16;98905.09;;;4.39;82.51
40155;BME280;25875;48.202;16.334;2023-11-19T12:16:07;98901.56;;;4.40;83.23
40155;BME280;25875;48.202;16.334;2023-11-19T12:18:34;98899.78;;;4.41;81.32
40155;BME280;25875;48.202;16.334;2023-11-19T12:21:01;98891.75;;;4.45;81.96
40155;BME280;25875;48.202;16.334;2023-11-19T12:23:30;98893.41;;;4.48;82.70
40155;BME280;25875;48.202;16.334;2023-11-19T12:25:57;98887.28;;;4.47;82.60
40155;BME280;25875;48.202;16.334;2023-11-19T12:28:24;98889.88;;;4.49;82.96
40155;BME280;25875;48.202;16.334;2023-11-19T12:30:52;98879.25;;;4.52;82.99
40155;BME280;25875;48.202;16.334;2023-11-19T12:33:19;98873.19;;;4.50;83.58
40155;BME280;25875;48.202;16.334;2023-11-19T12:35:47;98888.03;;;4.51;81.74
40155;BME280;25875;48.202;16.334;2023-11-19T12:38:24;98885.22;;;4.56;82.76
40155;BME280;25875;48.202;16.334;2023-11-19T12:41:11;98898.34;;;4.56;82.05
40155;BME280;25875;48.202;16.334;2023-11-19T12:43:38;98880.97;;;4.53;83.12
40155;BME280;25875;48.202;16.334;2023-11-19T12:46:16;98873.94;;;4.54;83.93
40155;BME280;25875;48.202;16.334;2023-11-19T12:48:43;98866.19;;;4.51;84.23
40155;BME280;25875;48.202;16.334;2023-11-19T12:51:10;98859.09;;;4.53;84.24
40155;BME280;25875;48.202;16.334;2023-11-19T12:53:47;98861.63;;;4.56;84.53
40155;BME280;25875;48.202;16.334;2023-11-19T12:56:16;98868.41;;;4.61;84.11
40155;BME280;25875;48.202;16.334;2023-11-19T12:58:43;98844.63;;;4.42;83.48
40155;BME280;25875;48.202;16.334;2023-11-19T13:01:09;98881.56;;;4.60;84.26
40155;BME280;25875;48.202;16.334;2023-11-19T13:03:37;98876.16;;;4.64;84.04
40155;BME280;25875;48.202;16.334;2023-11-19T13:06:05;98769.69;;;4.12;85.03
40155;BME280;25875;48.202;16.334;2023-11-19T13:08:37;98716.97;;;3.74;84.69